createdAt,value
2022-10-05T00:01:57.858Z,0
2022-10-05T00:08:17.822Z,0
2022-10-05T00:14:40.893Z,0
2022-10-05T00:21:00.798Z,0
2022-10-05T00:27:23.838Z,0
2022-10-05T00:33:43.821Z,0
2022-10-05T00:40:06.765Z,0
2022-10-05T00:46:26.773Z,0
2022-10-05T00:52:49.771Z,0
2022-10-05T00:59:09.828Z,0
2022-10-05T01:05:32.738Z,0
2022-10-05T01:11:52.886Z,0
2022-10-05T01:18:15.786Z,0
2022-10-05T01:24:35.849Z,0
2022-10-05T01:30:58.788Z,0
2022-10-05T01:37:18.848Z,0
2022-10-05T01:43:41.774Z,0
2022-10-05T01:50:01.847Z,0
2022-10-05T01:56:24.817Z,0
2022-10-05T02:02:44.897Z,0
2022-10-05T02:09:07.841Z,0
2022-10-05T02:15:27.733Z,0
2022-10-05T02:21:50.766Z,0
2022-10-05T02:28:10.870Z,0
2022-10-05T02:34:33.865Z,0
2022-10-05T02:40:53.757Z,0
2022-10-05T02:47:16.828Z,0
2022-10-05T02:53:36.781Z,0
2022-10-05T02:59:59.864Z,0
2022-10-05T03:06:19.807Z,0
2022-10-05T03:22:12.656Z,0
2022-10-05T03:28:32.859Z,0
2022-10-05T03:34:55.775Z,0
2022-10-05T03:41:15.829Z,0
2022-10-05T03:47:38.803Z,0
2022-10-05T03:53:58.799Z,0
2022-10-05T04:00:21.821Z,0
2022-10-05T04:06:41.824Z,0
2022-10-05T04:13:04.803Z,0
2022-10-05T04:19:24.763Z,0
2022-10-05T04:25:47.789Z,0
2022-10-05T04:32:07.753Z,0
2022-10-05T04:38:30.851Z,0
2022-10-05T04:44:50.792Z,0
2022-10-05T04:51:13.830Z,0
2022-10-05T04:57:33.810Z,0
2022-10-05T05:03:56.784Z,0
2022-10-05T05:10:16.823Z,0
2022-10-05T05:16:39.864Z,0
2022-10-05T05:22:59.818Z,0
2022-10-05T05:29:22.824Z,0
2022-10-05T05:35:42.788Z,0
2022-10-05T05:42:05.806Z,0
2022-10-05T05:48:25.780Z,0
2022-10-05T05:54:48.806Z,0
2022-10-05T06:01:16.378Z,5.62
2022-10-05T06:07:31.849Z,5.62
2022-10-05T06:13:51.808Z,5.62
2022-10-05T06:20:14.768Z,5.62
2022-10-05T06:26:34.816Z,5.62
2022-10-05T06:32:57.818Z,11.25
2022-10-05T06:39:17.835Z,11.25
2022-10-05T06:45:40.919Z,11.25
2022-10-05T06:52:00.831Z,11.25
2022-10-05T06:58:23.778Z,16.88
2022-10-05T07:04:43.748Z,22.5
2022-10-05T07:11:06.774Z,22.5
2022-10-05T07:17:26.776Z,22.5
2022-10-05T07:23:49.779Z,22.5
2022-10-05T07:30:09.830Z,22.5
2022-10-05T07:36:32.843Z,28.12
2022-10-05T07:42:52.814Z,33.75
2022-10-05T07:49:15.881Z,39.38
2022-10-05T07:55:35.747Z,45
2022-10-05T08:01:58.957Z,45
2022-10-05T08:08:19.716Z,45
2022-10-05T08:14:41.841Z,45
2022-10-05T08:31:24.637Z,50.62
2022-10-05T08:37:44.742Z,56.25
2022-10-05T08:44:07.729Z,50.62
2022-10-05T08:50:27.834Z,50.62
2022-10-05T08:56:50.773Z,50.62
2022-10-05T09:03:10.781Z,56.25
2022-10-05T09:09:33.860Z,67.5
2022-10-05T09:15:53.893Z,56.25
2022-10-05T09:22:16.908Z,50.62
2022-10-05T09:28:36.816Z,67.5
2022-10-05T09:34:59.776Z,67.5
2022-10-05T09:41:19.802Z,73.12
2022-10-05T09:47:42.778Z,78.75
2022-10-05T09:54:02.773Z,78.75
2022-10-05T10:00:25.751Z,84.38
2022-10-05T10:06:45.823Z,78.75
2022-10-05T10:13:08.803Z,112.5
2022-10-05T10:19:28.741Z,118.12
2022-10-05T10:25:51.832Z,67.5
2022-10-05T10:32:11.791Z,84.38
2022-10-05T10:38:34.774Z,101.25
2022-10-05T10:44:54.772Z,101.25
2022-10-05T10:51:17.777Z,90
2022-10-05T10:57:37.785Z,84.38
2022-10-05T11:04:00.786Z,90
2022-10-05T11:10:20.790Z,90
2022-10-05T11:16:43.770Z,95.62
2022-10-05T11:23:03.817Z,95.62
2022-10-05T11:29:26.774Z,101.25
2022-10-05T11:35:46.758Z,101.25
2022-10-05T11:42:09.788Z,106.88
2022-10-05T11:48:29.735Z,112.5
2022-10-05T11:55:09.652Z,112.5
2022-10-05T12:01:13.019Z,112.5
2022-10-05T12:07:36.866Z,118.12
2022-10-05T12:13:56.785Z,118.12
2022-10-05T12:20:19.944Z,118.12
2022-10-05T12:26:39.784Z,112.5
2022-10-05T12:33:02.759Z,112.5
2022-10-05T12:39:22.760Z,112.5
2022-10-05T12:45:45.872Z,106.88
2022-10-05T12:52:05.822Z,101.25
2022-10-05T12:58:28.806Z,101.25
2022-10-05T13:04:48.726Z,95.62
2022-10-05T13:11:14.969Z,90
2022-10-05T13:17:32.041Z,78.75
2022-10-05T13:23:57.326Z,73.12
2022-10-05T13:30:14.810Z,73.12
2022-10-05T13:46:07.382Z,50.62
2022-10-05T13:52:26.770Z,50.62
2022-10-05T13:58:50.377Z,45
2022-10-05T14:05:10.775Z,45
2022-10-05T14:11:33.793Z,45
2022-10-05T14:17:53.732Z,39.38
2022-10-05T14:24:25.768Z,39.38
2022-10-05T14:30:37.766Z,33.75
2022-10-05T14:37:00.731Z,33.75
2022-10-05T14:43:20.848Z,33.75
2022-10-05T14:49:43.742Z,33.75
2022-10-05T14:56:03.725Z,33.75
2022-10-05T15:02:26.979Z,33.75
2022-10-05T15:08:46.745Z,33.75
2022-10-05T15:15:09.850Z,28.12
2022-10-05T15:21:29.795Z,28.12
2022-10-05T15:27:52.801Z,28.12
2022-10-05T15:34:12.785Z,28.12
2022-10-05T15:40:35.783Z,22.5
2022-10-05T15:46:55.986Z,22.5
2022-10-05T15:53:19.075Z,16.88
2022-10-05T15:59:38.886Z,16.88
2022-10-05T16:06:01.835Z,16.88
2022-10-05T16:12:21.789Z,11.25
2022-10-05T16:18:44.760Z,11.25
2022-10-05T16:25:04.728Z,11.25
2022-10-05T16:31:27.740Z,5.62
2022-10-05T16:37:47.748Z,0
2022-10-05T16:44:10.933Z,0
2022-10-05T16:50:30.748Z,0
2022-10-05T16:56:53.834Z,0
2022-10-05T17:03:13.856Z,0
2022-10-05T17:09:36.815Z,0
2022-10-05T17:15:56.891Z,0
2022-10-05T17:22:19.819Z,0
2022-10-05T17:28:39.959Z,0
2022-10-05T17:35:02.823Z,0
2022-10-05T17:41:22.890Z,0
2022-10-05T17:47:47.555Z,0
2022-10-05T17:54:05.811Z,0
2022-10-05T18:00:28.865Z,0
2022-10-05T18:06:48.773Z,0
2022-10-05T18:13:11.918Z,0
2022-10-05T18:19:31.754Z,0
2022-10-05T18:25:54.818Z,0
2022-10-05T18:49:18.741Z,0
2022-10-05T18:55:38.757Z,0
2022-10-05T19:02:01.880Z,0
2022-10-05T19:08:21.782Z,0
2022-10-05T19:14:44.754Z,0
2022-10-05T19:21:04.747Z,0
2022-10-05T19:27:27.744Z,0
2022-10-05T19:33:47.769Z,0
2022-10-05T19:40:10.793Z,0
2022-10-05T19:46:30.853Z,0
2022-10-05T19:52:54.103Z,0
2022-10-05T19:59:13.774Z,0
2022-10-05T20:05:36.871Z,0
2022-10-05T20:11:56.771Z,0
2022-10-05T20:18:19.731Z,0
2022-10-05T20:24:39.763Z,0
2022-10-05T20:31:02.788Z,0
2022-10-05T20:37:22.794Z,0
2022-10-05T20:43:45.797Z,0
2022-10-05T20:50:05.765Z,0
2022-10-05T20:56:28.762Z,0
2022-10-05T21:02:48.764Z,0
2022-10-05T21:09:11.773Z,0
2022-10-05T21:15:31.744Z,0
2022-10-05T21:21:54.752Z,0
2022-10-05T21:28:14.798Z,0
2022-10-05T21:34:37.743Z,0
2022-10-05T21:40:57.793Z,0
2022-10-05T21:47:20.727Z,0
2022-10-05T21:53:40.759Z,0
2022-10-05T22:00:03.788Z,0
2022-10-05T22:23:00.745Z,0
2022-10-05T22:29:20.755Z,0
2022-10-05T22:35:43.750Z,0
2022-10-05T22:42:03.911Z,0
2022-10-05T22:48:27.207Z,0
2022-10-05T22:54:46.747Z,0
2022-10-05T23:01:09.960Z,0
2022-10-05T23:07:29.827Z,0
2022-10-05T23:13:52.820Z,0
2022-10-05T23:20:12.785Z,0
2022-10-05T23:26:35.737Z,0
2022-10-05T23:32:55.823Z,0
2022-10-05T23:39:18.802Z,0
2022-10-05T23:45:38.828Z,0
2022-10-05T23:52:01.764Z,0
2022-10-05T23:58:21.829Z,0
